sensor_id;sensor_type;location;lat;lon;timestamp;pressure;altitude;pressure_sealevel;temperature;humidity
16094;BME280;8151;47.824;12.092;2023-06-01T00:00:15;96322.72;;;18.58;55.40
16094;BME280;8151;47.824;12.092;2023-06-01T00:02:45;96326.06;;;18.54;55.46
16094;BME280;8151;47.824;12.092;2023-06-01T00:05:13;96331.75;;;18.39;55.68
16094;BME280;8151;47.824;12.092;2023-06-01T00:07:42;96330.47;;;18.16;56.11
16094;BME280;8151;47.824;12.092;2023-06-01T00:10:11;96330.22;;;17.93;56.68
16094;BME280;8151;47.824;12.092;2023-06-01T00:12:50;96338.28;;;17.86;56.93
16094;BME280;8151;47.824;12.092;2023-06-01T00:15:18;96326.97;;;17.84;57.02
16094;BME280;8151;47.824;12.092;2023-06-01T00:17:47;96328.41;;;17.86;56.80
16094;BME280;8151;47.824;12.092;2023-06-01T00:20:18;96325.13;;;17.84;56.67
16094;BME280;8151;47.824;12.092;2023-06-01T00:22:47;96331.47;;;17.83;56.72
16094;BME280;8151;47.824;12.092;2023-06-01T00:25:17;96327.19;;;17.76;56.79
16094;BME280;8151;47.824;12.092;2023-06-01T00:27:45;96327.63;;;17.66;57.04
16094;BME280;8151;47.824;12.092;2023-06-01T00:30:14;96327.44;;;17.67;57.13
16094;BME280;8151;47.824;12.092;2023-06-01T00:32:42;96320.63;;;17.71;56.91
16094;BME280;8151;47.824;12.092;2023-06-01T00:35:11;96326.22;;;17.70;57.00
16094;BME280;8151;47.824;12.092;2023-06-01T00:37:39;96327.44;;;17.67;57.10
16094;BME280;8151;47.824;12.092;2023-06-01T00:40:08;96324.97;;;17.66;57.09
16094;BME280;8151;47.824;12.092;2023-06-01T00:42:38;96322.94;;;17.61;57.29
16094;BME280;8151;47.824;12.092;2023-06-01T00:45:07;96321.94;;;17.56;57.50
16094;BME280;8151;47.824;12.092;2023-06-01T00:47:39;96325.47;;;17.49;57.58
16094;BME280;8151;47.824;12.092;2023-06-01T00:50:10;96314.81;;;17.36;58.01
16094;BME280;8151;47.824;12.092;2023-06-01T00:52:45;96316.69;;;17.29;58.27
16094;BME280;8151;47.824;12.092;2023-06-01T00:55:13;96318.75;;;17.27;58.31
16094;BME280;8151;47.824;12.092;2023-06-01T00:57:43;96312.59;;;17.26;58.46
16094;BME280;8151;47.824;12.092;2023-06-01T01:00:20;96310.34;;;17.30;58.30
16094;BME280;8151;47.824;12.092;2023-06-01T01:02:49;96318.97;;;17.32;58.48
16094;BME280;8151;47.824;12.092;2023-06-01T01:05:18;96309.06;;;17.39;58.35
16094;BME280;8151;47.824;12.092;2023-06-01T01:07:54;96315.03;;;17.41;58.43
16094;BME280;8151;47.824;12.092;2023-06-01T01:10:29;96327.41;;;17.29;58.53
16094;BME280;8151;47.824;12.092;2023-06-01T01:13:06;96320.91;;;17.05;59.11
16094;BME280;8151;47.824;12.092;2023-06-01T01:15:43;96317.63;;;17.03;59.29
16094;BME280;8151;47.824;12.092;2023-06-01T01:18:16;96318.84;;;17.07;59.16
16094;BME280;8151;47.824;12.092;2023-06-01T01:20:51;96309.16;;;17.12;59.13
16094;BME280;8151;47.824;12.092;2023-06-01T01:26:40;96321.50;;;17.07;59.38
16094;BME280;8151;47.824;12.092;2023-06-01T01:29:13;96325.19;;;17.06;59.11
16094;BME280;8151;47.824;12.092;2023-06-01T01:31:45;96323.56;;;16.98;59.28
16094;BME280;8151;47.824;12.092;2023-06-01T01:34:13;96323.41;;;16.93;59.49
16094;BME280;8151;47.824;12.092;2023-06-01T01:36:42;96322.56;;;16.99;59.39
16094;BME280;8151;47.824;12.092;2023-06-01T01:39:10;96316.81;;;16.96;59.46
16094;BME280;8151;47.824;12.092;2023-06-01T01:41:40;96322.34;;;16.94;59.63
16094;BME280;8151;47.824;12.092;2023-06-01T01:44:08;96320.69;;;17.00;59.40
16094;BME280;8151;47.824;12.092;2023-06-01T01:46:43;96315.16;;;17.08;59.16
16094;BME280;8151;47.824;12.092;2023-06-01T01:49:18;96310.03;;;16.93;59.60
16094;BME280;8151;47.824;12.092;2023-06-01T01:52:05;96313.53;;;16.80;60.35
16094;BME280;8151;47.824;12.092;2023-06-01T01:54:37;96319.50;;;16.69;60.23
16094;BME280;8151;47.824;12.092;2023-06-01T01:57:11;96306.75;;;16.78;59.91
16094;BME280;8151;47.824;12.092;2023-06-01T01:59:41;96318.25;;;16.91;59.72
16094;BME280;8151;47.824;12.092;2023-06-01T02:02:14;96310.44;;;16.90;59.52
16094;BME280;8151;47.824;12.092;2023-06-01T02:04:44;96311.69;;;16.74;59.79
16094;BME280;8151;47.824;12.092;2023-06-01T02:07:13;96318.47;;;16.63;60.23
16094;BME280;8151;47.824;12.092;2023-06-01T02:09:42;96310.88;;;16.60;60.00
16094;BME280;8151;47.824;12.092;2023-06-01T02:12:10;96309.03;;;16.61;60.29
16094;BME280;8151;47.824;12.092;2023-06-01T02:14:39;96308.63;;;16.64;60.18
16094;BME280;8151;47.824;12.092;2023-06-01T02:17:13;96304.31;;;16.63;60.21
16094;BME280;8151;47.824;12.092;2023-06-01T02:19:43;96300.81;;;16.62;59.81
16094;BME280;8151;47.824;12.092;2023-06-01T02:22:11;96302.25;;;16.58;60.11
16094;BME280;8151;47.824;12.092;2023-06-01T02:24:40;96304.50;;;16.61;59.99
16094;BME280;8151;47.824;12.092;2023-06-01T02:27:08;96307.81;;;16.43;60.19
16094;BME280;8151;47.824;12.092;2023-06-01T02:29:37;96305.16;;;16.30;60.95
16094;BME280;8151;47.824;12.092;2023-06-01T02:32:06;96306.59;;;16.26;61.11
16094;BME280;8151;47.824;12.092;2023-06-01T02:34:36;96306.00;;;16.30;60.95
16094;BME280;8151;47.824;12.092;2023-06-01T02:37:05;96315.00;;;16.43;60.58
16094;BME280;8151;47.824;12.092;2023-06-01T02:39:34;96306.59;;;16.52;60.38
16094;BME280;8151;47.824;12.092;2023-06-01T02:42:02;96310.06;;;16.60;60.29
16094;BME280;8151;47.824;12.092;2023-06-01T02:44:31;96317.25;;;16.66;60.01
16094;BME280;8151;47.824;12.092;2023-06-01T02:46:59;96311.31;;;16.64;60.16
16094;BME280;8151;47.824;12.092;2023-06-01T02:49:28;96311.28;;;16.57;60.39
16094;BME280;8151;47.824;12.092;2023-06-01T02:51:58;96308.44;;;16.52;60.67
16094;BME280;8151;47.824;12.092;2023-06-01T02:54:27;96307.00;;;16.43;60.80
16094;BME280;8151;47.824;12.092;2023-06-01T02:56:55;96298.41;;;16.21;61.21
16094;BME280;8151;47.824;12.092;2023-06-01T02:59:24;96305.13;;;15.97;62.11
16094;BME280;8151;47.824;12.092;2023-06-01T03:01:53;96306.78;;;15.84;62.41
16094;BME280;8151;47.824;12.092;2023-06-01T03:04:22;96308.19;;;15.93;62.15
16094;BME280;8151;47.824;12.092;2023-06-01T03:06:54;96314.81;;;16.18;61.75
16094;BME280;8151;47.824;12.092;2023-06-01T03:09:26;96314.00;;;16.30;61.15
16094;BME280;8151;47.824;12.092;2023-06-01T03:11:55;96317.28;;;16.32;60.78
16094;BME280;8151;47.824;12.092;2023-06-01T03:14:24;96314.41;;;16.27;60.95
16094;BME280;8151;47.824;12.092;2023-06-01T03:16:55;96315.84;;;16.23;61.35
16094;BME280;8151;47.824;12.092;2023-06-01T03:19:24;96313.16;;;16.10;61.75
16094;BME280;8151;47.824;12.092;2023-06-01T03:21:52;96318.88;;;15.87;62.36
16094;BME280;8151;47.824;12.092;2023-06-01T03:24:21;96328.44;;;15.68;62.66
16094;BME280;8151;47.824;12.092;2023-06-01T03:26:51;96320.50;;;15.81;62.48
16094;BME280;8151;47.824;12.092;2023-06-01T03:29:20;96326.09;;;16.00;61.97
16094;BME280;8151;47.824;12.092;2023-06-01T03:31:48;96334.91;;;16.07;61.59
16094;BME280;8151;47.824;12.092;2023-06-01T03:34:17;96335.94;;;16.06;61.37
16094;BME280;8151;47.824;12.092;2023-06-01T03:36:46;96329.34;;;15.95;61.35
16094;BME280;8151;47.824;12.092;2023-06-01T03:39:15;96337.56;;;15.80;61.85
16094;BME280;8151;47.824;12.092;2023-06-01T03:41:44;96346.91;;;15.69;62.18
16094;BME280;8151;47.824;12.092;2023-06-01T03:44:14;96344.00;;;15.64;62.43
16094;BME280;8151;47.824;12.092;2023-06-01T03:46:42;96343.81;;;15.66;62.56
16094;BME280;8151;47.824;12.092;2023-06-01T03:49:11;96348.34;;;15.65;62.26
16094;BME280;8151;47.824;12.092;2023-06-01T03:51:41;96344.00;;;15.64;62.58
16094;BME280;8151;47.824;12.092;2023-06-01T03:54:09;96348.16;;;15.67;62.28
16094;BME280;8151;47.824;12.092;2023-06-01T03:56:38;96340.78;;;15.69;62.62
16094;BME280;8151;47.824;12.092;2023-06-01T03:59:06;96337.13;;;15.77;62.43
16094;BME280;8151;47.824;12.092;2023-06-01T04:01:38;96334.69;;;15.88;62.09
16094;BME280;8151;47.824;12.092;2023-06-01T04:04:07;96339.78;;;15.83;62.55
16094;BME280;8151;47.824;12.092;2023-06-01T04:06:36;96345.75;;;15.85;62.67
16094;BME280;8151;47.824;12.092;2023-06-01T04:09:05;96343.09;;;15.85;62.49
16094;BME280;8151;47.824;12.092;2023-06-01T04:11:36;96333.38;;;15.71;62.80
16094;BME280;8151;47.824;12.092;2023-06-01T04:14:04;96343.16;;;15.50;63.54
16094;BME280;8151;47.824;12.092;2023-06-01T04:16:33;96344.81;;;15.58;63.46
16094;BME280;8151;47.824;12.092;2023-06-01T04:19:03;96330.91;;;15.69;62.91
16094;BME280;8151;47.824;12.092;2023-06-01T04:21:31;96341.03;;;15.81;62.95
16094;BME280;8151;47.824;12.092;2023-06-01T04:24:00;96335.50;;;15.89;62.66
16094;BME280;8151;47.824;12.092;2023-06-01T04:26:29;96338.59;;;15.86;62.89
16094;BME280;8151;47.824;12.092;2023-06-01T04:28:59;96338.97;;;15.76;62.97
16094;BME280;8151;47.824;12.092;2023-06-01T04:31:28;96339.22;;;15.88;63.00
16094;BME280;8151;47.824;12.092;2023-06-01T04:34:00;96336.75;;;16.00;62.38
16094;BME280;8151;47.824;12.092;2023-06-01T04:36:29;96344.97;;;16.05;62.52
16094;BME280;8151;47.824;12.092;2023-06-01T04:39:00;96343.53;;;16.09;62.87
16094;BME280;8151;47.824;12.092;2023-06-01T04:41:32;96339.84;;;16.10;62.72
16094;BME280;8151;47.824;12.092;2023-06-01T04:44:02;96341.22;;;15.79;63.16
16094;BME280;8151;47.824;12.092;2023-06-01T04:46:33;96349.78;;;15.61;64.07
16094;BME280;8151;47.824;12.092;2023-06-01T04:49:02;96347.31;;;15.66;64.38
16094;BME280;8151;47.824;12.092;2023-06-01T04:51:33;96341.66;;;15.76;64.09
16094;BME280;8151;47.824;12.092;2023-06-01T04:54:03;96339.19;;;15.74;64.32
16094;BME280;8151;47.824;12.092;2023-06-01T04:56:32;96338.09;;;15.69;64.45
16094;BME280;8151;47.824;12.092;2023-06-01T04:59:00;96342.03;;;15.73;64.87
16094;BME280;8151;47.824;12.092;2023-06-01T05:01:32;96333.44;;;15.91;64.57
16094;BME280;8151;47.824;12.092;2023-06-01T05:04:00;96338.41;;;16.14;63.98
16094;BME280;8151;47.824;12.092;2023-06-01T05:06:29;96336.59;;;16.34;63.50
16094;BME280;8151;47.824;12.092;2023-06-01T05:08:59;96333.06;;;16.47;63.55
16094;BME280;8151;47.824;12.092;2023-06-01T05:11:28;96326.53;;;16.50;63.40
16094;BME280;8151;47.824;12.092;2023-06-01T05:13:56;96336.19;;;16.58;63.63
16094;BME280;8151;47.824;12.092;2023-06-01T05:16:28;96334.09;;;16.66;63.34
16094;BME280;8151;47.824;12.092;2023-06-01T05:18:57;96335.94;;;16.72;63.26
16094;BME280;8151;47.824;12.092;2023-06-01T05:21:26;96339.63;;;16.78;63.10
16094;BME280;8151;47.824;12.092;2023-06-01T05:23:55;96342.53;;;16.83;63.22
16094;BME280;8151;47.824;12.092;2023-06-01T05:26:25;96333.88;;;16.95;62.95
16094;BME280;8151;47.824;12.092;2023-06-01T05:28:56;96340.88;;;17.02;62.89
16094;BME280;8151;47.824;12.092;2023-06-01T05:31:25;96344.94;;;17.11;62.81
16094;BME280;8151;47.824;12.092;2023-06-01T05:33:53;96334.66;;;17.15;62.74
16094;BME280;8151;47.824;12.092;2023-06-01T05:36:22;96336.53;;;17.08;63.26
16094;BME280;8151;47.824;12.092;2023-06-01T05:38:51;96335.44;;;17.16;63.19
16094;BME280;8151;47.824;12.092;2023-06-01T05:41:19;96332.38;;;17.19;63.43
16094;BME280;8151;47.824;12.092;2023-06-01T05:43:49;96328.66;;;17.26;63.36
16094;BME280;8151;47.824;12.092;2023-06-01T05:46:18;96335.41;;;17.36;63.21
16094;BME280;8151;47.824;12.092;2023-06-01T05:48:47;96334.97;;;17.45;62.80
16094;BME280;8151;47.824;12.092;2023-06-01T05:51:15;96338.19;;;17.54;62.67
16094;BME280;8151;47.824;12.092;2023-06-01T05:53:44;96341.47;;;17.63;62.61
16094;BME280;8151;47.824;12.092;2023-06-01T05:56:12;96338.53;;;17.71;62.34
16094;BME280;8151;47.824;12.092;2023-06-01T05:58:41;96343.22;;;17.76;62.18
16094;BME280;8151;47.824;12.092;2023-06-01T06:01:11;96334.19;;;17.77;62.21
16094;BME280;8151;47.824;12.092;2023-06-01T06:03:40;96333.97;;;17.78;62.24
16094;BME280;8151;47.824;12.092;2023-06-01T06:06:09;96336.22;;;17.81;62.26
16094;BME280;8151;47.824;12.092;2023-06-01T06:08:38;96339.34;;;17.78;62.32
16094;BME280;8151;47.824;12.092;2023-06-01T06:11:06;96334.38;;;17.82;62.20
16094;BME280;8151;47.824;12.092;2023-06-01T06:13:35;96339.34;;;17.78;62.40
16094;BME280;8151;47.824;12.092;2023-06-01T06:16:04;96332.56;;;17.69;62.76
16094;BME280;8151;47.824;12.092;2023-06-01T06:18:35;96336.47;;;17.73;62.82
16094;BME280;8151;47.824;12.092;2023-06-01T06:21:04;96333.53;;;17.81;62.80
16094;BME280;8151;47.824;12.092;2023-06-01T06:23:33;96338.84;;;17.95;62.54
16094;BME280;8151;47.824;12.092;2023-06-01T06:26:01;96337.34;;;18.05;62.53
16094;BME280;8151;47.824;12.092;2023-06-01T06:28:30;96337.75;;;18.09;62.41
16094;BME280;8151;47.824;12.092;2023-06-01T06:30:58;96342.81;;;18.17;62.38
16094;BME280;8151;47.824;12.092;2023-06-01T06:33:28;96347.09;;;18.25;62.52
16094;BME280;8151;47.824;12.092;2023-06-01T06:35:59;96339.00;;;18.32;62.52
16094;BME280;8151;47.824;12.092;2023-06-01T06:38:29;96342.72;;;18.30;62.62
16094;BME280;8151;47.824;12.092;2023-06-01T06:40:58;96343.94;;;18.35;62.70
16094;BME280;8151;47.824;12.092;2023-06-01T06:43:28;96345.53;;;18.42;62.81
16094;BME280;8151;47.824;12.092;2023-06-01T06:45:57;96347.13;;;18.50;62.80
16094;BME280;8151;47.824;12.092;2023-06-01T06:48:26;96350.78;;;18.56;62.65
16094;BME280;8151;47.824;12.092;2023-06-01T06:50:54;96350.72;;;18.62;62.63
16094;BME280;8151;47.824;12.092;2023-06-01T06:53:25;96349.00;;;18.68;62.36
16094;BME280;8151;47.824;12.092;2023-06-01T06:55:54;96353.34;;;18.69;62.12
16094;BME280;8151;47.824;12.092;2023-06-01T06:58:23;96358.25;;;18.72;62.16
16094;BME280;8151;47.824;12.092;2023-06-01T07:00:51;96355.31;;;18.80;62.23
16094;BME280;8151;47.824;12.092;2023-06-01T07:03:20;96353.88;;;18.84;62.19
16094;BME280;8151;47.824;12.092;2023-06-01T07:05:50;96357.06;;;18.93;62.06
16094;BME280;8151;47.824;12.092;2023-06-01T07:08:18;96352.91;;;18.97;61.88
16094;BME280;8151;47.824;12.092;2023-06-01T07:10:48;96351.03;;;18.98;61.75
16094;BME280;8151;47.824;12.092;2023-06-01T07:13:16;96360.94;;;18.97;61.69
16094;BME280;8151;47.824;12.092;2023-06-01T07:15:46;96357.22;;;18.98;61.46
16094;BME280;8151;47.824;12.092;2023-06-01T07:18:14;96351.78;;;19.05;61.34
16094;BME280;8151;47.824;12.092;2023-06-01T07:20:43;96356.03;;;19.13;61.44
16094;BME280;8151;47.824;12.092;2023-06-01T07:23:11;96355.75;;;19.21;61.39
16094;BME280;8151;47.824;12.092;2023-06-01T07:25:40;96358.41;;;19.21;61.48
16094;BME280;8151;47.824;12.092;2023-06-01T07:28:15;96347.69;;;19.21;61.30
16094;BME280;8151;47.824;12.092;2023-06-01T07:30:44;96355.47;;;19.29;61.51
16094;BME280;8151;47.824;12.092;2023-06-01T07:33:12;96357.84;;;19.37;61.46
16094;BME280;8151;47.824;12.092;2023-06-01T07:35:41;96359.31;;;19.52;61.41
16094;BME280;8151;47.824;12.092;2023-06-01T07:38:09;96357.53;;;19.64;61.10
16094;BME280;8151;47.824;12.092;2023-06-01T07:40:38;96354.56;;;19.72;61.38
16094;BME280;8151;47.824;12.092;2023-06-01T07:43:07;96353.22;;;19.81;61.65
16094;BME280;8151;47.824;12.092;2023-06-01T07:45:36;96345.66;;;19.90;61.15
16094;BME280;8151;47.824;12.092;2023-06-01T07:48:07;96352.13;;;20.01;60.87
16094;BME280;8151;47.824;12.092;2023-06-01T07:50:37;96352.00;;;20.08;60.68
16094;BME280;8151;47.824;12.092;2023-06-01T07:53:05;96350.66;;;20.17;60.28
16094;BME280;8151;47.824;12.092;2023-06-01T07:55:34;96344.13;;;20.24;60.18
16094;BME280;8151;47.824;12.092;2023-06-01T07:58:03;96342.84;;;20.27;60.08
16094;BME280;8151;47.824;12.092;2023-06-01T08:00:32;96347.19;;;20.28;60.12
16094;BME280;8151;47.824;12.092;2023-06-01T08:03:03;96342.97;;;20.32;60.04
16094;BME280;8151;47.824;12.092;2023-06-01T08:05:34;96337.38;;;20.34;60.36
16094;BME280;8151;47.824;12.092;2023-06-01T08:08:05;96337.72;;;20.37;60.13
16094;BME280;8151;47.824;12.092;2023-06-01T08:10:34;96334.34;;;20.42;60.25
16094;BME280;8151;47.824;12.092;2023-06-01T08:13:13;96335.28;;;20.48;60.33
16094;BME280;8151;47.824;12.092;2023-06-01T08:15:41;96345.13;;;20.54;59.86
16094;BME280;8151;47.824;12.092;2023-06-01T08:18:15;96336.97;;;20.60;59.86
16094;BME280;8151;47.824;12.092;2023-06-01T08:20:44;96339.78;;;20.65;59.81
16094;BME280;8151;47.824;12.092;2023-06-01T08:23:12;96337.91;;;20.66;59.75
16094;BME280;8151;47.824;12.092;2023-06-01T08:25:44;96334.03;;;20.74;59.52
16094;BME280;8151;47.824;12.092;2023-06-01T08:28:13;96340.84;;;20.88;59.34
16094;BME280;8151;47.824;12.092;2023-06-01T08:30:41;96338.84;;;20.95;59.04
16094;BME280;8151;47.824;12.092;2023-06-01T08:33:10;96335.22;;;21.01;58.77
16094;BME280;8151;47.824;12.092;2023-06-01T08:35:40;96331.81;;;21.06;58.90
16094;BME280;8151;47.824;12.092;2023-06-01T08:38:13;96338.38;;;21.10;58.77
16094;BME280;8151;47.824;12.092;2023-06-01T08:40:41;96334.28;;;21.19;58.53
16094;BME280;8151;47.824;12.092;2023-06-01T08:43:15;96323.25;;;21.33;58.37
16094;BME280;8151;47.824;12.092;2023-06-01T08:45:45;96333.63;;;21.41;57.99
16094;BME280;8151;47.824;12.092;2023-06-01T08:48:16;96326.16;;;21.43;57.89
16094;BME280;8151;47.824;12.092;2023-06-01T08:50:50;96332.00;;;21.52;57.75
16094;BME280;8151;47.824;12.092;2023-06-01T08:53:21;96326.91;;;21.67;57.76
16094;BME280;8151;47.824;12.092;2023-06-01T08:55:51;96329.44;;;21.86;57.49
16094;BME280;8151;47.824;12.092;2023-06-01T08:58:19;96327.03;;;22.01;57.14
16094;BME280;8151;47.824;12.092;2023-06-01T09:00:48;96324.50;;;22.11;57.10
16094;BME280;8151;47.824;12.092;2023-06-01T09:03:17;96322.94;;;22.15;56.96
16094;BME280;8151;47.824;12.092;2023-06-01T09:05:46;96314.78;;;22.10;56.86
16094;BME280;8151;47.824;12.092;2023-06-01T09:08:23;96319.91;;;22.12;56.82
16094;BME280;8151;47.824;12.092;2023-06-01T09:10:52;96320.59;;;22.19;56.96
16094;BME280;8151;47.824;12.092;2023-06-01T09:13:33;96312.78;;;22.34;56.34
16094;BME280;8151;47.824;12.092;2023-06-01T09:16:02;96311.72;;;22.52;56.09
16094;BME280;8151;47.824;12.092;2023-06-01T09:18:31;96313.06;;;22.67;55.51
16094;BME280;8151;47.824;12.092;2023-06-01T09:21:13;96313.19;;;22.77;55.10
16094;BME280;8151;47.824;12.092;2023-06-01T09:23:43;96305.19;;;22.82;55.25
16094;BME280;8151;47.824;12.092;2023-06-01T09:26:13;96311.28;;;22.94;54.93
16094;BME280;8151;47.824;12.092;2023-06-01T09:28:55;96306.47;;;22.96;54.55
16094;BME280;8151;47.824;12.092;2023-06-01T09:31:38;96309.84;;;23.04;54.60
16094;BME280;8151;47.824;12.092;2023-06-01T09:34:08;96300.06;;;23.19;54.18
16094;BME280;8151;47.824;12.092;2023-06-01T09:36:38;96302.38;;;23.33;53.58
16094;BME280;8151;47.824;12.092;2023-06-01T09:39:10;96305.47;;;23.42;53.40
16094;BME280;8151;47.824;12.092;2023-06-01T09:41:45;96305.53;;;23.47;53.02
16094;BME280;8151;47.824;12.092;2023-06-01T09:44:22;96294.47;;;23.48;52.84
16094;BME280;8151;47.824;12.092;2023-06-01T09:46:52;96294.72;;;23.47;52.66
16094;BME280;8151;47.824;12.092;2023-06-01T09:49:23;96289.81;;;23.44;51.96
16094;BME280;8151;47.824;12.092;2023-06-01T09:52:00;96285.75;;;23.41;51.74
16094;BME280;8151;47.824;12.092;2023-06-01T09:54:38;96282.28;;;23.46;51.96
16094;BME280;8151;47.824;12.092;2023-06-01T09:57:08;96286.81;;;23.62;51.99
16094;BME280;8151;47.824;12.092;2023-06-01T09:59:40;96287.22;;;23.76;51.73
16094;BME280;8151;47.824;12.092;2023-06-01T10:02:14;96274.94;;;23.90;51.47
16094;BME280;8151;47.824;12.092;2023-06-01T10:04:47;96268.56;;;23.96;51.83
16094;BME280;8151;47.824;12.092;2023-06-01T10:07:17;96275.88;;;24.01;52.25
16094;BME280;8151;47.824;12.092;2023-06-01T10:09:50;96270.53;;;24.06;52.05
16094;BME280;8151;47.824;12.092;2023-06-01T10:12:19;96275.22;;;24.16;51.77
16094;BME280;8151;47.824;12.092;2023-06-01T10:14:48;96272.03;;;24.24;51.68
16094;BME280;8151;47.824;12.092;2023-06-01T10:17:19;96259.94;;;24.32;51.00
16094;BME280;8151;47.824;12.092;2023-06-01T10:19:48;96258.63;;;24.40;50.77
16094;BME280;8151;47.824;12.092;2023-06-01T10:22:16;96262.75;;;24.47;51.05
16094;BME280;8151;47.824;12.092;2023-06-01T10:24:45;96255.84;;;24.62;50.32
16094;BME280;8151;47.824;12.092;2023-06-01T10:27:20;96262.41;;;24.71;49.73
16094;BME280;8151;47.824;12.092;2023-06-01T10:29:51;96255.72;;;24.84;49.75
16094;BME280;8151;47.824;12.092;2023-06-01T10:32:43;96256.88;;;24.98;48.98
16094;BME280;8151;47.824;12.092;2023-06-01T10:38:32;96252.16;;;25.26;48.72
16094;BME280;8151;47.824;12.092;2023-06-01T10:41:26;96251.66;;;25.34;48.03
16094;BME280;8151;47.824;12.092;2023-06-01T10:43:57;96248.94;;;25.39;47.67
16094;BME280;8151;47.824;12.092;2023-06-01T10:46:40;96245.19;;;25.40;46.13
16094;BME280;8151;47.824;12.092;2023-06-01T10:49:12;96240.28;;;25.37;46.99
16094;BME280;8151;47.824;12.092;2023-06-01T10:51:40;96241.38;;;25.41;47.47
16094;BME280;8151;47.824;12.092;2023-06-01T10:54:26;96233.56;;;25.60;47.00
16094;BME280;8151;47.824;12.092;2023-06-01T10:57:22;96232.78;;;25.80;46.62
16094;BME280;8151;47.824;12.092;2023-06-01T11:00:15;96232.59;;;25.97;45.95
16094;BME280;8151;47.824;12.092;2023-06-01T11:02:53;96230.72;;;26.08;46.06
16094;BME280;8151;47.824;12.092;2023-06-01T11:05:40;96234.47;;;26.17;45.50
16094;BME280;8151;47.824;12.092;2023-06-01T11:11:11;96235.03;;;26.35;45.22
16094;BME280;8151;47.824;12.092;2023-06-01T11:13:40;96233.13;;;26.30;45.39
16094;BME280;8151;47.824;12.092;2023-06-01T11:16:29;96226.06;;;26.44;44.62
16094;BME280;8151;47.824;12.092;2023-06-01T11:18:59;96221.44;;;26.65;44.53
16094;BME280;8151;47.824;12.092;2023-06-01T11:21:32;96226.03;;;26.80;43.50
16094;BME280;8151;47.824;12.092;2023-06-01T11:24:05;96219.00;;;26.74;43.34
16094;BME280;8151;47.824;12.092;2023-06-01T11:26:37;96214.16;;;26.61;43.74
16094;BME280;8151;47.824;12.092;2023-06-01T11:29:08;96209.78;;;26.70;43.51
16094;BME280;8151;47.824;12.092;2023-06-01T11:31:41;96201.56;;;26.90;42.72
16094;BME280;8151;47.824;12.092;2023-06-01T11:34:11;96195.53;;;27.09;41.92
16094;BME280;8151;47.824;12.092;2023-06-01T11:36:42;96191.38;;;27.22;41.33
16094;BME280;8151;47.824;12.092;2023-06-01T11:39:19;96188.09;;;27.35;41.34
16094;BME280;8151;47.824;12.092;2023-06-01T11:41:51;96188.09;;;27.40;41.83
16094;BME280;8151;47.824;12.092;2023-06-01T11:44:20;96188.88;;;27.46;42.12
16094;BME280;8151;47.824;12.092;2023-06-01T11:46:56;96187.19;;;27.55;41.48
16094;BME280;8151;47.824;12.092;2023-06-01T11:49:26;96188.06;;;27.45;41.54
16094;BME280;8151;47.824;12.092;2023-06-01T11:51:55;96176.16;;;27.36;41.67
16094;BME280;8151;47.824;12.092;2023-06-01T11:54:26;96171.47;;;27.47;41.80
16094;BME280;8151;47.824;12.092;2023-06-01T11:56:56;96178.16;;;27.65;41.59
16094;BME280;8151;47.824;12.092;2023-06-01T11:59:25;96172.66;;;27.75;41.39
16094;BME280;8151;47.824;12.092;2023-06-01T12:01:57;96158.19;;;27.80;40.91
16094;BME280;8151;47.824;12.092;2023-06-01T12:04:25;96161.00;;;27.69;41.11
16094;BME280;8151;47.824;12.092;2023-06-01T12:07:05;96164.50;;;27.70;41.28
16094;BME280;8151;47.824;12.092;2023-06-01T12:09:34;96163.00;;;27.93;40.54
16094;BME280;8151;47.824;12.092;2023-06-01T12:12:04;96152.47;;;28.21;39.52
16094;BME280;8151;47.824;12.092;2023-06-01T12:14:35;96165.97;;;28.31;39.13
16094;BME280;8151;47.824;12.092;2023-06-01T12:17:06;96154.88;;;28.52;37.95
16094;BME280;8151;47.824;12.092;2023-06-01T12:19:44;96159.19;;;28.58;38.36
16094;BME280;8151;47.824;12.092;2023-06-01T12:22:13;96149.06;;;28.63;38.87
16094;BME280;8151;47.824;12.092;2023-06-01T12:24:43;96157.22;;;28.63;39.23
16094;BME280;8151;47.824;12.092;2023-06-01T12:27:13;96155.84;;;28.66;38.86
16094;BME280;8151;47.824;12.092;2023-06-01T12:29:43;96148.66;;;28.75;38.80
16094;BME280;8151;47.824;12.092;2023-06-01T12:32:14;96152.66;;;28.83;38.42
16094;BME280;8151;47.824;12.092;2023-06-01T12:35:02;96143.88;;;28.86;37.99
16094;BME280;8151;47.824;12.092;2023-06-01T12:37:34;96139.47;;;28.90;37.74
16094;BME280;8151;47.824;12.092;2023-06-01T12:40:03;96141.88;;;28.97;37.85
16094;BME280;8151;47.824;12.092;2023-06-01T12:42:34;96136.25;;;29.12;37.68
16094;BME280;8151;47.824;12.092;2023-06-01T12:45:05;96125.34;;;29.12;37.42
16094;BME280;8151;47.824;12.092;2023-06-01T12:47:36;96124.84;;;29.05;36.70
16094;BME280;8151;47.824;12.092;2023-06-01T12:50:07;96132.56;;;28.98;36.88
16094;BME280;8151;47.824;12.092;2023-06-01T12:52:37;96126.66;;;29.15;36.08
16094;BME280;8151;47.824;12.092;2023-06-01T12:55:07;96120.56;;;29.42;35.71
16094;BME280;8151;47.824;12.092;2023-06-01T12:57:37;96120.03;;;29.59;34.95
16094;BME280;8151;47.824;12.092;2023-06-01T13:00:06;96115.56;;;29.49;34.75
16094;BME280;8151;47.824;12.092;2023-06-01T13:02:37;96108.69;;;29.33;34.99
16094;BME280;8151;47.824;12.092;2023-06-01T13:05:06;96111.34;;;29.38;35.01
16094;BME280;8151;47.824;12.092;2023-06-01T13:07:36;96103.25;;;29.33;34.84
16094;BME280;8151;47.824;12.092;2023-06-01T13:10:05;96106.13;;;29.41;34.39
16094;BME280;8151;47.824;12.092;2023-06-01T13:12:35;96108.47;;;29.67;34.19
16094;BME280;8151;47.824;12.092;2023-06-01T13:15:04;96105.00;;;29.80;33.56
16094;BME280;8151;47.824;12.092;2023-06-01T13:17:35;96100.28;;;29.86;33.50
16094;BME280;8151;47.824;12.092;2023-06-01T13:20:05;96100.34;;;29.81;33.75
16094;BME280;8151;47.824;12.092;2023-06-01T13:22:34;96094.16;;;29.75;34.20
16094;BME280;8151;47.824;12.092;2023-06-01T13:25:04;96096.38;;;29.73;33.92
16094;BME280;8151;47.824;12.092;2023-06-01T13:27:35;96093.91;;;29.72;33.88